Terminal Aerodrome Forecast
Issued by NWS

Home | Current Version | Previous Version | Text Only | Print | Product List | Glossary On
Versions: 1 2 3 4 5 6 7 8 9 10 11 12 13 14 15 16 17 18 19
000
FTUS42 KMLB 162323
TAFLEE
TAF
KLEE 162323Z 1700/1724 10005KT P6SM FEW040
     FM170800 14003KT 3SM BR SCT003
      TEMPO 1709/1713 3/4SM BR BKN003
     FM171300 17006KT P6SM SCT035=

USA.gov is the U.S. government's official web portal to all federal, state and local government web resources and services.